createdAt,value
2023-02-22T00:02:10.732Z,18.40
2023-02-22T00:04:39.707Z,18.30
2023-02-22T00:07:07.060Z,18.30
2023-02-22T00:09:33.999Z,18.20
2023-02-22T00:12:01.220Z,18.30
2023-02-22T00:14:28.491Z,18.30
2023-02-22T00:16:59.840Z,18.30
2023-02-22T00:19:28.144Z,18.30
2023-02-22T00:21:54.832Z,18.20
2023-02-22T00:24:24.300Z,18.30
2023-02-22T00:26:55.661Z,18.20
2023-02-22T00:29:23.672Z,18.20
2023-02-22T00:31:50.796Z,18.20
2023-02-22T00:34:17.576Z,18.20
2023-02-22T00:36:48.499Z,18.20
2023-02-22T00:39:15.878Z,18.10
2023-02-22T00:41:42.758Z,18.10
2023-02-22T00:44:09.473Z,18.20
2023-02-22T00:46:36.100Z,18.20
2023-02-22T00:49:03.713Z,18.20
2023-02-22T00:51:30.359Z,18.20
2023-02-22T00:53:57.061Z,18.20
2023-02-22T00:56:24.129Z,18.20
2023-02-22T00:58:50.833Z,18.20
2023-02-22T01:01:17.809Z,18.20
2023-02-22T01:03:44.927Z,18.20
2023-02-22T01:06:11.829Z,18.10
2023-02-22T01:08:38.478Z,18.20
2023-02-22T01:11:05.308Z,18.10
2023-02-22T01:13:32.819Z,18.20
2023-02-22T01:16:00.625Z,18.00
2023-02-22T01:18:27.375Z,18.10
2023-02-22T01:20:54.224Z,18.10
2023-02-22T01:23:21.391Z,18.00
2023-02-22T01:25:48.136Z,18.10
2023-02-22T01:28:15.152Z,18.00
2023-02-22T01:30:41.971Z,18.10
2023-02-22T01:33:08.874Z,18.10
2023-02-22T01:35:38.517Z,18.10
2023-02-22T01:38:05.239Z,18.10
2023-02-22T01:40:35.108Z,18.10
2023-02-22T01:43:15.486Z,18.10
2023-02-22T01:45:50.021Z,18.10
2023-02-22T01:48:22.434Z,18.10
2023-02-22T01:50:55.326Z,18.10
2023-02-22T01:53:26.594Z,18.10
2023-02-22T01:55:55.574Z,18.00
2023-02-22T01:58:24.562Z,18.10
2023-02-22T02:00:51.809Z,18.10
2023-02-22T02:03:23.559Z,18.20
2023-02-22T02:05:52.692Z,18.10
2023-02-22T02:08:55.839Z,18.00
2023-02-22T02:11:25.572Z,18.00
2023-02-22T02:13:57.424Z,18.00
2023-02-22T02:16:30.366Z,18.00
2023-02-22T02:18:57.163Z,18.00
2023-02-22T02:21:57.886Z,18.00
2023-02-22T02:24:50.742Z,18.00
2023-02-22T02:27:25.581Z,18.00
2023-02-22T02:30:20.035Z,18.00
2023-02-22T02:33:01.795Z,17.90
2023-02-22T02:35:50.090Z,17.90
2023-02-22T02:38:28.017Z,17.90
2023-02-22T02:41:16.646Z,17.90
2023-02-22T02:44:00.928Z,18.00
2023-02-22T02:46:56.219Z,17.90
2023-02-22T02:49:39.075Z,17.90
2023-02-22T02:52:06.985Z,17.90
2023-02-22T02:54:34.181Z,17.90
2023-02-22T02:57:02.573Z,18.00
2023-02-22T02:59:37.158Z,17.90
2023-02-22T03:02:26.409Z,18.00
2023-02-22T03:05:18.003Z,18.00
2023-02-22T03:07:53.769Z,18.00
2023-02-22T03:10:27.872Z,17.90
2023-02-22T03:13:01.178Z,17.90
2023-02-22T03:15:54.441Z,17.90
2023-02-22T03:18:59.946Z,18.00
2023-02-22T03:21:49.669Z,18.10
2023-02-22T03:24:26.670Z,18.30
2023-02-22T03:27:09.221Z,18.30
2023-02-22T03:29:39.473Z,18.30
2023-02-22T03:32:14.473Z,18.40
2023-02-22T03:34:50.713Z,18.50
2023-02-22T03:37:21.946Z,18.50
2023-02-22T03:39:51.351Z,18.60
2023-02-22T03:42:23.443Z,18.60
2023-02-22T03:44:53.274Z,18.60
2023-02-22T03:47:32.425Z,18.50
2023-02-22T03:50:09.513Z,18.50
2023-02-22T03:52:36.962Z,18.50
2023-02-22T03:55:10.994Z,18.50
2023-02-22T03:57:41.434Z,18.40
2023-02-22T04:00:13.416Z,18.30
2023-02-22T04:02:41.136Z,18.30
2023-02-22T04:05:08.249Z,18.20
2023-02-22T04:07:35.038Z,18.20
2023-02-22T04:10:08.412Z,18.10
2023-02-22T04:12:36.105Z,18.00
2023-02-22T04:15:04.747Z,18.00
2023-02-22T04:17:31.631Z,18.00
2023-02-22T04:19:59.138Z,18.20
2023-02-22T04:22:25.858Z,18.20
2023-02-22T04:24:53.624Z,17.90
2023-02-22T04:27:20.284Z,18.00
2023-02-22T04:29:47.299Z,18.00
2023-02-22T04:32:14.011Z,18.20
2023-02-22T04:34:40.674Z,18.00
2023-02-22T04:37:07.677Z,17.90
2023-02-22T04:39:34.554Z,17.90
2023-02-22T04:42:01.280Z,17.80
2023-02-22T04:44:27.933Z,18.00
2023-02-22T04:46:54.588Z,17.90
2023-02-22T04:49:21.239Z,17.90
2023-02-22T04:51:47.860Z,17.90
2023-02-22T04:54:16.362Z,17.90
2023-02-22T04:56:43.605Z,17.90
2023-02-22T04:59:10.438Z,17.90
2023-02-22T05:01:37.883Z,18.00
2023-02-22T05:04:08.257Z,17.90
2023-02-22T05:06:34.944Z,18.00
2023-02-22T05:09:01.707Z,17.80
2023-02-22T05:11:28.991Z,17.80
2023-02-22T05:13:55.789Z,17.80
2023-02-22T05:16:22.617Z,17.80
2023-02-22T05:18:49.304Z,17.80
2023-02-22T05:21:16.364Z,17.80
2023-02-22T05:23:43.184Z,17.60
2023-02-22T05:26:11.647Z,17.80
2023-02-22T05:28:38.557Z,17.90
2023-02-22T05:31:07.187Z,17.80
2023-02-22T05:33:33.984Z,17.70
2023-02-22T05:36:00.743Z,17.80
2023-02-22T05:38:27.552Z,17.80
2023-02-22T05:40:54.331Z,17.70
2023-02-22T05:43:20.993Z,17.70
2023-02-22T05:45:47.633Z,17.80
2023-02-22T05:48:14.295Z,17.80
2023-02-22T05:50:40.956Z,17.70
2023-02-22T05:53:07.691Z,17.70
2023-02-22T05:55:34.410Z,17.70
2023-02-22T05:58:01.725Z,17.70
2023-02-22T06:00:31.121Z,17.70
2023-02-22T06:03:04.848Z,17.70
2023-02-22T06:05:32.102Z,17.70
2023-02-22T06:07:59.423Z,17.70
2023-02-22T06:10:27.173Z,17.80
2023-02-22T06:12:55.211Z,17.70
2023-02-22T06:15:23.439Z,17.70
2023-02-22T06:17:50.633Z,17.70
2023-02-22T06:20:22.509Z,17.70
2023-02-22T06:22:54.627Z,17.60
2023-02-22T06:25:24.148Z,17.70
2023-02-22T06:27:51.211Z,17.60
2023-02-22T06:30:21.852Z,17.60
2023-02-22T06:32:48.618Z,17.70
2023-02-22T06:35:15.816Z,17.70
2023-02-22T06:37:42.638Z,17.60
2023-02-22T06:40:11.781Z,17.60
2023-02-22T06:42:39.532Z,17.60
2023-02-22T06:45:06.620Z,17.60
2023-02-22T06:47:33.421Z,17.60
2023-02-22T06:50:00.961Z,17.70
2023-02-22T06:52:27.631Z,17.60
2023-02-22T06:54:54.317Z,17.70
2023-02-22T06:57:21.063Z,17.60
2023-02-22T06:59:47.821Z,17.50
2023-02-22T07:02:14.913Z,17.50
2023-02-22T07:04:43.518Z,17.60
2023-02-22T07:07:10.648Z,17.60
2023-02-22T07:09:37.525Z,17.60
2023-02-22T07:12:05.343Z,17.50
2023-02-22T07:14:32.119Z,17.60
2023-02-22T07:16:58.760Z,17.60
2023-02-22T07:19:25.454Z,17.50
2023-02-22T07:21:59.181Z,17.50
2023-02-22T07:24:28.361Z,17.60
2023-02-22T07:26:55.296Z,17.50
2023-02-22T07:29:22.532Z,17.50
2023-02-22T07:31:49.652Z,17.50
2023-02-22T07:34:16.387Z,17.50
2023-02-22T07:36:43.215Z,17.60
2023-02-22T07:39:10.281Z,17.60
2023-02-22T07:41:36.941Z,17.70
2023-02-22T07:44:03.887Z,17.80
2023-02-22T07:46:30.503Z,17.70
2023-02-22T07:48:57.199Z,17.70
2023-02-22T07:51:24.086Z,17.70
2023-02-22T07:53:50.828Z,17.70
2023-02-22T07:56:18.191Z,17.80
2023-02-22T07:58:44.893Z,17.80
2023-02-22T08:01:11.657Z,18.00
2023-02-22T08:03:38.657Z,17.80
2023-02-22T08:06:07.132Z,17.70
2023-02-22T08:08:34.490Z,17.80
2023-02-22T08:11:01.264Z,17.80
2023-02-22T08:13:28.202Z,17.80
2023-02-22T08:15:55.269Z,17.80
2023-02-22T08:18:25.831Z,17.80
2023-02-22T08:20:53.776Z,17.80
2023-02-22T08:23:22.603Z,17.80
2023-02-22T08:25:49.288Z,17.80
2023-02-22T08:28:19.824Z,17.80
2023-02-22T08:30:46.673Z,17.80
2023-02-22T08:33:16.752Z,17.80
2023-02-22T08:35:43.781Z,17.80
2023-02-22T08:38:18.884Z,17.80
2023-02-22T08:40:45.564Z,17.80
2023-02-22T08:43:13.423Z,17.90
2023-02-22T08:45:40.889Z,17.90
2023-02-22T08:48:07.794Z,17.80
2023-02-22T08:50:35.486Z,17.80
2023-02-22T08:53:05.885Z,17.90
2023-02-22T08:55:36.046Z,17.80
2023-02-22T08:58:04.129Z,17.80
2023-02-22T09:00:35.148Z,17.90
2023-02-22T09:03:07.236Z,17.90
2023-02-22T09:05:33.993Z,17.90
2023-02-22T09:08:01.442Z,17.90
2023-02-22T09:10:31.086Z,17.90
2023-02-22T09:13:00.837Z,17.90
2023-02-22T09:15:28.023Z,17.90
2023-02-22T09:17:55.816Z,17.90
2023-02-22T09:20:23.862Z,18.00
2023-02-22T09:22:50.736Z,17.90
2023-02-22T09:25:20.465Z,17.90
2023-02-22T09:27:49.804Z,17.90
2023-02-22T09:30:31.842Z,18.00
2023-02-22T09:33:02.000Z,17.90
2023-02-22T09:35:29.081Z,18.00
2023-02-22T09:38:00.776Z,18.00
2023-02-22T09:40:30.190Z,17.90
2023-02-22T09:43:02.689Z,18.00
2023-02-22T09:45:48.065Z,17.90
2023-02-22T09:48:22.174Z,17.90
2023-02-22T09:50:51.330Z,17.90
2023-02-22T09:53:29.547Z,18.00
2023-02-22T09:56:01.672Z,18.00
2023-02-22T09:58:33.463Z,18.00
2023-02-22T10:01:32.661Z,18.00
2023-02-22T10:04:13.472Z,17.90
2023-02-22T10:06:43.832Z,17.70
2023-02-22T10:09:11.496Z,17.90
2023-02-22T10:12:02.621Z,17.90
2023-02-22T10:14:58.453Z,17.90
2023-02-22T10:17:30.672Z,18.00
2023-02-22T10:20:30.663Z,17.90
2023-02-22T10:23:09.103Z,17.80
2023-02-22T10:25:38.848Z,17.90
2023-02-22T10:28:20.866Z,17.90
2023-02-22T10:30:59.133Z,17.90
2023-02-22T10:33:41.391Z,17.90
2023-02-22T10:36:19.066Z,17.90
2023-02-22T10:39:11.662Z,17.90
2023-02-22T10:41:45.649Z,17.80
2023-02-22T10:44:12.362Z,17.90
2023-02-22T10:46:41.922Z,17.90
2023-02-22T10:49:10.997Z,18.00
2023-02-22T10:51:39.252Z,18.00
2023-02-22T10:54:15.107Z,18.00
2023-02-22T10:56:52.899Z,17.90
2023-02-22T10:59:38.148Z,18.00
2023-02-22T11:02:35.694Z,18.10
2023-02-22T11:05:05.028Z,18.20
2023-02-22T11:07:36.469Z,18.20
2023-02-22T11:10:09.310Z,18.40
2023-02-22T11:12:38.684Z,18.40
2023-02-22T11:15:17.589Z,18.40
2023-02-22T11:17:46.309Z,18.80
2023-02-22T11:20:28.268Z,18.80
2023-02-22T11:22:58.299Z,18.50
2023-02-22T11:25:32.186Z,18.50
2023-02-22T11:28:20.913Z,18.90
2023-02-22T11:30:51.393Z,18.60
2023-02-22T11:33:24.691Z,18.60
2023-02-22T11:35:58.183Z,18.70
2023-02-22T11:38:30.947Z,18.70
2023-02-22T11:41:11.143Z,18.70
2023-02-22T11:43:37.824Z,18.70
2023-02-22T11:46:27.097Z,18.80
2023-02-22T11:49:05.643Z,18.80
2023-02-22T11:51:38.211Z,18.70
2023-02-22T11:54:25.357Z,18.80
2023-02-22T11:56:55.705Z,18.60
2023-02-22T11:59:36.670Z,18.60
2023-02-22T12:02:56.340Z,18.50
2023-02-22T12:05:30.923Z,18.40
2023-02-22T12:08:19.238Z,18.30
2023-02-22T12:11:18.374Z,18.40
2023-02-22T12:14:07.509Z,18.40
2023-02-22T12:16:39.742Z,18.30
2023-02-22T12:19:15.346Z,18.20
2023-02-22T12:21:46.813Z,18.30
2023-02-22T12:24:24.518Z,18.30
2023-02-22T12:26:56.548Z,18.50
2023-02-22T12:29:26.345Z,18.30
2023-02-22T12:32:00.407Z,18.20
2023-02-22T12:34:27.248Z,18.40
2023-02-22T12:37:17.999Z,18.30
2023-02-22T12:40:24.904Z,18.30
2023-02-22T12:43:24.477Z,18.30
2023-02-22T12:46:13.380Z,18.30
2023-02-22T12:48:54.298Z,18.30
2023-02-22T12:51:21.020Z,18.30
2023-02-22T12:54:18.430Z,18.30
2023-02-22T12:57:13.577Z,18.30
2023-02-22T12:59:54.546Z,18.40
2023-02-22T13:02:29.456Z,18.30
2023-02-22T13:04:56.135Z,18.30
2023-02-22T13:07:45.916Z,18.30
2023-02-22T13:10:36.776Z,18.30
2023-02-22T13:13:19.688Z,18.20
2023-02-22T13:15:58.481Z,18.20
2023-02-22T13:18:35.525Z,18.20
2023-02-22T13:21:29.722Z,18.40
2023-02-22T13:24:25.103Z,18.40
2023-02-22T13:27:21.697Z,18.50
2023-02-22T13:29:51.991Z,18.60
2023-02-22T13:32:24.639Z,18.70
2023-02-22T13:34:57.282Z,18.70
2023-02-22T13:37:48.606Z,18.80
2023-02-22T13:40:21.214Z,18.80
2023-02-22T13:42:55.814Z,18.80
2023-02-22T13:45:31.484Z,18.80
2023-02-22T13:48:24.300Z,18.80
2023-02-22T13:50:53.936Z,18.80
2023-02-22T13:53:25.644Z,18.90
2023-02-22T13:55:54.036Z,18.80
2023-02-22T13:58:21.010Z,18.80
2023-02-22T14:00:50.828Z,18.90
2023-02-22T14:03:40.344Z,18.90
2023-02-22T14:06:31.089Z,19.00
2023-02-22T14:08:57.802Z,19.00
2023-02-22T14:11:33.199Z,18.90
2023-02-22T14:14:02.759Z,19.00
2023-02-22T14:16:33.899Z,19.00
2023-02-22T14:19:13.496Z,19.00
2023-02-22T14:22:02.405Z,18.90
2023-02-22T14:24:44.158Z,18.80
2023-02-22T14:27:12.154Z,18.90
2023-02-22T14:29:56.595Z,18.70
2023-02-22T14:32:34.487Z,18.70
2023-02-22T14:35:09.634Z,18.60
2023-02-22T14:37:43.403Z,18.50
2023-02-22T14:40:27.034Z,18.70
2023-02-22T14:43:09.506Z,18.60
2023-02-22T14:45:45.178Z,18.50
2023-02-22T14:48:24.937Z,18.70
2023-02-22T14:50:56.683Z,18.50
2023-02-22T14:53:41.569Z,18.50
2023-02-22T14:56:36.179Z,18.70
2023-02-22T14:59:07.968Z,18.70
2023-02-22T15:01:49.334Z,18.70
2023-02-22T15:04:31.266Z,18.60
2023-02-22T15:07:01.032Z,18.70
2023-02-22T15:09:37.301Z,18.70
2023-02-22T15:12:03.949Z,18.60
2023-02-22T15:14:33.121Z,18.50
2023-02-22T15:17:04.071Z,18.60
2023-02-22T15:19:33.188Z,18.60
2023-02-22T15:22:01.805Z,18.60
2023-02-22T15:24:32.535Z,18.70
2023-02-22T15:27:15.827Z,18.60
2023-02-22T15:29:44.560Z,18.60
2023-02-22T15:32:29.277Z,18.60
2023-02-22T15:35:05.546Z,18.60
2023-02-22T15:37:32.551Z,18.60
2023-02-22T15:40:14.418Z,18.60
2023-02-22T15:42:47.539Z,18.60
2023-02-22T15:45:19.798Z,18.60
2023-02-22T15:47:48.462Z,18.50
2023-02-22T15:50:28.965Z,18.70
2023-02-22T15:53:03.156Z,18.50
2023-02-22T15:55:39.723Z,18.60
2023-02-22T15:58:15.079Z,18.60
2023-02-22T16:00:44.388Z,18.50
2023-02-22T16:03:19.556Z,18.60
2023-02-22T16:05:52.445Z,18.50
2023-02-22T16:08:23.793Z,18.50
2023-02-22T16:11:01.296Z,18.50
2023-02-22T16:13:33.072Z,18.60
2023-02-22T16:16:05.964Z,18.50
2023-02-22T16:18:35.295Z,18.50
2023-02-22T16:21:11.818Z,18.40
2023-02-22T16:24:01.379Z,18.40
2023-02-22T16:26:34.867Z,18.50
2023-02-22T16:29:03.637Z,18.50
2023-02-22T16:31:33.901Z,18.50
2023-02-22T16:34:02.502Z,18.60
2023-02-22T16:36:47.331Z,18.40
2023-02-22T16:39:23.373Z,18.40
2023-02-22T16:41:58.549Z,18.50
2023-02-22T16:44:26.649Z,18.50
2023-02-22T16:47:00.635Z,18.40
2023-02-22T16:49:27.591Z,18.60
2023-02-22T16:51:55.722Z,18.50
2023-02-22T16:54:27.947Z,18.40
2023-02-22T16:57:01.939Z,18.40
2023-02-22T16:59:36.002Z,18.70
2023-02-22T17:02:07.390Z,18.40
2023-02-22T17:04:34.414Z,18.50
2023-02-22T17:07:05.103Z,18.50
2023-02-22T17:09:32.813Z,18.40
2023-02-22T17:11:59.669Z,18.40
2023-02-22T17:14:34.002Z,18.60
2023-02-22T17:17:00.961Z,18.40
2023-02-22T17:19:27.800Z,18.60
2023-02-22T17:21:54.514Z,18.50
2023-02-22T17:24:23.694Z,18.50
2023-02-22T17:26:52.986Z,18.60
2023-02-22T17:29:20.582Z,18.60
2023-02-22T17:31:48.825Z,18.50
2023-02-22T17:34:15.900Z,18.40
2023-02-22T17:36:43.024Z,18.60
2023-02-22T17:39:10.611Z,18.40
2023-02-22T17:41:40.299Z,18.60
2023-02-22T17:44:07.513Z,18.50
2023-02-22T17:46:36.128Z,18.50
2023-02-22T17:49:03.483Z,18.40
2023-02-22T17:51:30.180Z,18.40
2023-02-22T17:53:56.938Z,18.40
2023-02-22T17:56:23.705Z,18.40
2023-02-22T17:58:53.629Z,18.40
2023-02-22T18:01:24.793Z,18.50
2023-02-22T18:03:53.252Z,18.40
2023-02-22T18:06:25.007Z,18.30
2023-02-22T18:08:56.489Z,18.40
2023-02-22T18:11:26.189Z,18.50
2023-02-22T18:13:54.995Z,18.40
2023-02-22T18:16:22.217Z,18.30
2023-02-22T18:18:49.720Z,18.30
2023-02-22T18:21:16.439Z,18.30
2023-02-22T18:23:44.968Z,18.30
2023-02-22T18:26:20.154Z,18.40
2023-02-22T18:28:49.965Z,18.40
2023-02-22T18:31:19.384Z,18.30
2023-02-22T18:33:50.549Z,18.40
2023-02-22T18:36:22.532Z,18.40
2023-02-22T18:38:51.458Z,18.40
2023-02-22T18:41:19.580Z,18.30
2023-02-22T18:43:46.598Z,18.40
2023-02-22T18:46:16.263Z,18.30
2023-02-22T18:48:43.556Z,18.40
2023-02-22T18:51:13.207Z,18.50
2023-02-22T18:53:46.648Z,18.40
2023-02-22T18:56:21.293Z,18.20
2023-02-22T18:58:48.387Z,18.40
2023-02-22T19:01:18.476Z,18.30
2023-02-22T19:03:48.750Z,18.40
2023-02-22T19:06:16.827Z,18.40
2023-02-22T19:08:45.006Z,18.40
2023-02-22T19:11:19.202Z,18.40
2023-02-22T19:13:47.270Z,18.40
2023-02-22T19:16:15.695Z,18.40
2023-02-22T19:18:43.972Z,18.30
2023-02-22T19:21:12.247Z,18.40
2023-02-22T19:23:45.569Z,18.30
2023-02-22T19:26:18.479Z,18.40
2023-02-22T19:28:47.102Z,18.30
2023-02-22T19:31:18.659Z,18.30
2023-02-22T19:33:47.872Z,18.30
2023-02-22T19:36:15.390Z,18.40
2023-02-22T19:38:43.479Z,18.30
2023-02-22T19:41:14.982Z,18.30
2023-02-22T19:43:41.711Z,18.30
2023-02-22T19:46:08.603Z,18.30
2023-02-22T19:48:35.345Z,18.30
2023-02-22T19:51:06.779Z,18.30
2023-02-22T19:53:34.682Z,18.20
2023-02-22T19:56:06.306Z,18.30
2023-02-22T19:58:36.590Z,18.30
2023-02-22T20:01:17.836Z,18.40
2023-02-22T20:03:44.759Z,18.30
2023-02-22T20:06:12.270Z,18.30
2023-02-22T20:08:41.905Z,18.30
2023-02-22T20:11:12.054Z,18.40
2023-02-22T20:13:39.512Z,18.30
2023-02-22T20:16:07.359Z,18.30
2023-02-22T20:18:34.421Z,18.30
2023-02-22T20:21:07.015Z,18.30
2023-02-22T20:23:33.791Z,18.30
2023-02-22T20:26:00.786Z,18.40
2023-02-22T20:28:27.935Z,18.30
2023-02-22T20:30:54.575Z,18.30
2023-02-22T20:33:22.067Z,18.30
2023-02-22T20:35:48.809Z,18.60
2023-02-22T20:38:15.465Z,18.20
2023-02-22T20:40:42.434Z,18.30
2023-02-22T20:43:09.670Z,18.30
2023-02-22T20:45:39.809Z,18.20
2023-02-22T20:48:06.630Z,18.40
2023-02-22T20:50:35.177Z,18.30
2023-02-22T20:53:01.879Z,18.20
2023-02-22T20:55:28.524Z,18.30
2023-02-22T20:57:55.153Z,18.20
2023-02-22T21:00:21.963Z,18.20
2023-02-22T21:02:48.635Z,18.20
2023-02-22T21:05:15.384Z,18.30
2023-02-22T21:07:42.014Z,18.20
2023-02-22T21:10:09.000Z,18.20
2023-02-22T21:12:35.837Z,18.30
2023-02-22T21:15:02.548Z,18.30
2023-02-22T21:17:30.703Z,18.20
2023-02-22T21:19:58.603Z,18.30
2023-02-22T21:22:25.504Z,18.40
2023-02-22T21:24:53.178Z,18.30
2023-02-22T21:27:20.117Z,18.40
2023-02-22T21:29:47.041Z,18.40
2023-02-22T21:32:13.956Z,18.40
2023-02-22T21:34:41.351Z,18.40
2023-02-22T21:37:08.276Z,18.50
2023-02-22T21:39:35.546Z,18.50
2023-02-22T21:42:02.633Z,18.50
2023-02-22T21:44:30.060Z,18.50
2023-02-22T21:46:57.203Z,18.40
2023-02-22T21:49:24.880Z,18.40
2023-02-22T21:51:52.423Z,18.50
2023-02-22T21:54:19.959Z,18.50
2023-02-22T21:56:46.802Z,18.60
2023-02-22T21:59:18.869Z,18.50
2023-02-22T22:01:50.917Z,18.40
2023-02-22T22:04:20.550Z,18.40
2023-02-22T22:06:49.449Z,18.40
2023-02-22T22:09:19.142Z,18.40
2023-02-22T22:11:53.261Z,18.40
2023-02-22T22:14:23.051Z,18.40
2023-02-22T22:16:52.113Z,18.30
2023-02-22T22:19:19.630Z,18.30
2023-02-22T22:21:46.964Z,18.30
2023-02-22T22:24:13.665Z,18.30
2023-02-22T22:26:40.432Z,18.30
2023-02-22T22:29:10.393Z,18.50
2023-02-22T22:31:37.798Z,18.40
2023-02-22T22:34:05.282Z,18.30
2023-02-22T22:36:34.073Z,18.30
2023-02-22T22:39:01.252Z,18.30
2023-02-22T22:41:28.197Z,18.30
2023-02-22T22:43:55.008Z,18.30
2023-02-22T22:46:21.943Z,18.20
2023-02-22T22:48:49.008Z,18.30
2023-02-22T22:51:19.869Z,18.20
2023-02-22T22:53:48.757Z,18.20
2023-02-22T22:56:19.160Z,18.30
2023-02-22T22:58:49.540Z,18.30
2023-02-22T23:01:19.446Z,18.30
2023-02-22T23:03:56.884Z,18.20
2023-02-22T23:06:30.750Z,18.30
2023-02-22T23:09:00.477Z,18.20
2023-02-22T23:11:33.602Z,18.20
2023-02-22T23:14:04.476Z,18.20
2023-02-22T23:16:34.913Z,18.20
2023-02-22T23:19:01.654Z,18.40
2023-02-22T23:21:28.330Z,18.20
2023-02-22T23:23:58.153Z,18.20
2023-02-22T23:26:26.988Z,18.50
2023-02-22T23:28:56.371Z,18.20
2023-02-22T23:31:23.772Z,18.10
2023-02-22T23:33:50.888Z,18.30
2023-02-22T23:36:18.780Z,18.30
2023-02-22T23:38:45.802Z,18.10
2023-02-22T23:41:18.494Z,18.30
2023-02-22T23:43:45.897Z,18.20
2023-02-22T23:46:18.342Z,18.10
2023-02-22T23:48:54.812Z,18.10
2023-02-22T23:51:26.081Z,18.20
2023-02-22T23:53:57.350Z,18.20
2023-02-22T23:56:26.934Z,18.20
2023-02-22T23:58:57.058Z,18.20
